LPPT Informação do Aeroporto

Informação da Pista
Runway 03 Length 12484 ft width 148 ft
Elevation 331 ft Threshold 296 ft Heading 22
Runway 21 Length 12484 ft Width 148 ft
Elevation 347 ft Threshold 1969 ft Heading 202
Runway 17 Length 7874 ft width 148 ft
Elevation 374 ft Threshold 0 ft Heading 168
Runway 35 Length 7874 ft Width 148 ft
Elevation 332 ft Threshold 492 ft Heading 348
Frequencias do Aeroporto
Tipo APP Nome APP Frequência 119.1 MHZ
Tipo ATIS Nome ATIS Frequência 124.15 MHZ
Tipo CLD Nome CLD Frequência 118.95 MHZ
Tipo GND Nome GND Frequência 121.75 MHZ
Tipo INFO Nome INFO Frequência 123.75 MHZ
Tipo RDO Nome RDO Frequência 127.9 MHZ
Tipo TWR Nome TWR Frequência 118.1 MHZ
Navaids Aeroporto
Tipo NDB Name Caparica Frequência 389 KHZ
Tipo NDB Name Arruda Frequência 382 KHZ
Tipo VOR-DME Name Lisboa Frequência 114800 KHZ
Tempo do Aeroporto & NOTAM
ADDS - METARS form results

(0728 UTC 22 February 2020)
Data provider http://aviationweather.gov/metar/data/
 
METAR text: LPPT 220700Z 06004KT CAVOK 10/06 Q1029
Conditions at: LPPT (LISBON/PORTELA , PT) observed 0700 UTC 22 February 2020
Temperature: 10.0°C (50°F)
Dewpoint: 6.0°C (43°F) [RH = 76%]
Pressure (altimeter): 30.38 inches Hg (1029.0 mb)
Winds: from the ENE (60 degrees) at 5 MPH (4 knots; 2.1 m/s)
Visibility: 6 or more miles (10+ km)
Ceiling: ceiling and visibility are OK
Clouds: unknown
Weather: no significant weather observed at this time

METAR text: LPPT 220630Z 02006KT CAVOK 10/07 Q1029
Conditions at: LPPT (LISBON/PORTELA , PT) observed 0630 UTC 22 February 2020
Temperature: 10.0°C (50°F)
Dewpoint: 7.0°C (45°F) [RH = 82%]
Pressure (altimeter): 30.38 inches Hg (1029.0 mb)
Winds: from the NNE (20 degrees) at 7 MPH (6 knots; 3.1 m/s)
Visibility: 6 or more miles (10+ km)
Ceiling: ceiling and visibility are OK
Clouds: unknown
Weather: no significant weather observed at this time

Forecast for: LPPT (LISBON/PORTELA , PT)
Text: TAF LPPT 220500Z 2206/2312 04007KT CAVOK
Forecast period: 0600 to 1700 UTC 22 February 2020
Forecast type: FROM: standard forecast or significant change
Winds: from the NE (40 degrees) at 8 MPH (7 knots; 3.6 m/s)
Visibility: 6 or more miles 10+ km)
Ceiling: unknown
Clouds: missing
Weather: NSW  (no significant weather)
Text: BECMG 2217/2219 35007KT
Forecast period: 1700 UTC 22 February 2020 to 0300 UTC 23 February 2020
Forecast type: BECOMING: Conditions expected to become as follows by 1900 UTC 22 February 2020
Winds: from the N (350 degrees) at 8 MPH (7 knots; 3.6 m/s)
Visibility: 6 or more miles 10+ km)
Ceiling: unknown
Clouds: missing
Weather: NSW  (no significant weather)
Text: BECMG 2303/2306 04007KT
Forecast period: 0300 to 1200 UTC 23 February 2020
Forecast type: BECOMING: Conditions expected to become as follows by 0600 UTC 23 February 2020
Winds: from the NE (40 degrees) at 8 MPH (7 knots; 3.6 m/s)
Visibility: 6 or more miles 10+ km)
Ceiling: unknown
Clouds: missing
Weather: NSW  (no significant weather)